Time;durP1;ratioP1;P1;durP2;ratioP2;P2;SDS_P1;SDS_P2;PMS_P1;PMS_P2;Temp;Humidity;BMP_temperature;BMP_pressure;BME280_temperature;BME280_humidity;BME280_pressure;Samples;Min_cycle;Max_cycle;Signal;HPM_P1;HPM_P2
2021/12/21 00:01:46;;;;;;;10.05;5.80;;;;;6.70;102609.00;;;;5086793;28;20206;-80
2021/12/21 00:04:13;;;;;;;8.60;5.10;;;;;6.70;102612.00;;;;5073948;28;20712;-80
2021/12/21 00:06:42;;;;;;;9.55;4.55;;;;;6.70;102604.00;;;;5073660;28;20268;-80
2021/12/21 00:09:10;;;;;;;5.88;3.35;;;;;6.70;102613.00;;;;5079511;28;20194;-80
2021/12/21 00:11:38;;;;;;;5.88;3.63;;;;;6.70;102617.00;;;;5079895;28;20194;-80
2021/12/21 00:14:17;;;;;;;7.90;3.63;;;;;6.70;102611.00;;;;5070420;28;20198;-80
2021/12/21 00:17:03;;;;;;;7.68;3.97;;;;;6.60;102616.00;;;;5068925;28;20687;-80
2021/12/21 00:23:03;;;;;;;7.10;3.67;;;;;6.60;102611.00;;;;5076090;28;20285;-80
2021/12/21 00:25:27;;;;;;;6.38;3.65;;;;;6.60;102609.00;;;;5070277;28;20218;-80
2021/12/21 00:27:54;;;;;;;7.40;4.00;;;;;6.60;102609.00;;;;5074994;28;20214;-80
2021/12/21 00:30:22;;;;;;;6.65;4.60;;;;;6.60;102610.00;;;;5070831;28;20198;-79
2021/12/21 00:32:51;;;;;;;9.30;3.53;;;;;6.60;102616.00;;;;5071813;28;20376;-80
2021/12/21 00:35:18;;;;;;;7.22;3.33;;;;;6.60;102611.00;;;;5071986;28;20199;-80
2021/12/21 00:37:47;;;;;;;6.88;3.83;;;;;6.60;102596.00;;;;5069999;28;20683;-80
2021/12/21 00:40:15;;;;;;;6.03;3.83;;;;;6.60;102599.00;;;;5069861;28;20187;-79
2021/12/21 00:42:42;;;;;;;6.97;4.03;;;;;6.50;102602.00;;;;5069375;28;20202;-79
2021/12/21 00:45:10;;;;;;;5.25;3.22;;;;;6.50;102597.00;;;;5079299;28;20198;-80
2021/12/21 00:47:41;;;;;;;6.20;3.55;;;;;6.50;102588.00;;;;5071593;28;20245;-80
2021/12/21 00:50:16;;;;;;;6.57;3.15;;;;;6.50;102591.00;;;;5069302;28;20661;-80
2021/12/21 00:52:45;;;;;;;5.38;3.50;;;;;6.50;102598.00;;;;5070199;28;20727;-79
2021/12/21 00:55:12;;;;;;;4.88;3.22;;;;;6.50;102589.00;;;;5079959;28;20660;-79
2021/12/21 00:57:40;;;;;;;9.35;3.40;;;;;6.50;102588.00;;;;5071109;28;20219;-80
2021/12/21 01:00:09;;;;;;;7.45;3.72;;;;;6.50;102580.00;;;;5069667;28;20205;-79
2021/12/21 01:02:41;;;;;;;6.20;3.83;;;;;6.50;102585.00;;;;5075241;28;20198;-79
2021/12/21 01:05:18;;;;;;;7.85;3.85;;;;;6.40;102591.00;;;;5069098;28;20249;-79
2021/12/21 01:07:49;;;;;;;7.07;3.20;;;;;6.40;102583.00;;;;5082854;28;20198;-79
2021/12/21 01:13:13;;;;;;;6.30;3.15;;;;;6.40;102574.00;;;;5088913;28;20193;-80
2021/12/21 01:15:58;;;;;;;5.95;3.20;;;;;6.40;102577.00;;;;5069604;28;20202;-79
2021/12/21 01:18:33;;;;;;;5.10;3.20;;;;;6.40;102582.00;;;;5070779;28;20761;-79
2021/12/21 01:21:10;;;;;;;3.80;2.88;;;;;6.30;102579.00;;;;5078638;28;20290;-79
2021/12/21 01:26:49;;;;;;;5.50;3.50;;;;;6.30;102580.00;;;;5025246;28;20203;-79
2021/12/21 01:29:24;;;;;;;7.05;3.72;;;;;6.30;102563.00;;;;5025207;28;20646;-79
2021/12/21 01:32:01;;;;;;;5.45;3.08;;;;;6.30;102571.00;;;;5063545;28;20201;-79
2021/12/21 01:34:40;;;;;;;7.38;2.72;;;;;6.30;102566.00;;;;5086559;28;20197;-79
2021/12/21 01:37:17;;;;;;;4.50;2.97;;;;;6.30;102561.00;;;;5071725;28;20202;-79
2021/12/21 01:40:00;;;;;;;7.68;3.88;;;;;6.30;102562.00;;;;5082159;28;20198;-79
2021/12/21 01:42:50;;;;;;;4.53;2.90;;;;;6.20;102561.00;;;;5088368;28;20201;-79
2021/12/21 01:50:50;;;;;;;6.07;3.25;;;;;6.20;102562.00;;;;5068628;28;20249;-79
2021/12/21 01:53:19;;;;;;;7.50;3.20;;;;;6.20;102555.00;;;;5076581;28;20195;-79
2021/12/21 01:55:48;;;;;;;5.88;3.33;;;;;6.20;102559.00;;;;5069200;28;20867;-80
2021/12/21 01:58:15;;;;;;;8.73;3.70;;;;;6.20;102561.00;;;;5069148;28;20215;-79
2021/12/21 02:00:44;;;;;;;6.60;3.47;;;;;6.20;102557.00;;;;5079695;28;20197;-80
2021/12/21 02:03:11;;;;;;;5.53;2.90;;;;;6.20;102555.00;;;;5072132;28;20214;-80
2021/12/21 02:05:38;;;;;;;5.72;2.75;;;;;6.10;102557.00;;;;5077589;28;20229;-79
2021/12/21 02:08:06;;;;;;;6.90;3.25;;;;;6.10;102553.00;;;;5083709;28;20198;-79
2021/12/21 02:10:35;;;;;;;5.88;2.90;;;;;6.10;102553.00;;;;5075482;28;20202;-79
2021/12/21 02:13:03;;;;;;;5.88;3.35;;;;;6.10;102543.00;;;;5076550;28;20664;-79
2021/12/21 02:15:31;;;;;;;6.50;2.90;;;;;6.10;102551.00;;;;5085496;28;20198;-79
2021/12/21 02:20:51;;;;;;;6.60;3.40;;;;;6.10;102542.00;;;;5082605;28;20275;-79
2021/12/21 02:23:23;;;;;;;4.45;2.65;;;;;6.10;102532.00;;;;5084994;28;20190;-80
2021/12/21 02:28:58;;;;;;;6.25;2.70;;;;;6.10;102543.00;;;;5067174;28;20337;-79
2021/12/21 02:31:26;;;;;;;6.38;2.70;;;;;6.00;102536.00;;;;5067715;28;20206;-80
2021/12/21 02:33:54;;;;;;;9.30;2.92;;;;;6.00;102539.00;;;;5068024;28;20754;-79
2021/12/21 02:36:25;;;;;;;5.18;3.10;;;;;6.00;102535.00;;;;5068053;28;20190;-80
2021/12/21 02:38:52;;;;;;;9.15;3.35;;;;;6.00;102532.00;;;;5069041;28;20222;-79
2021/12/21 02:41:20;;;;;;;7.57;3.67;;;;;6.00;102536.00;;;;5072780;28;20202;-79
2021/12/21 02:43:47;;;;;;;4.80;2.50;;;;;6.00;102534.00;;;;5072250;28;20206;-80
2021/12/21 02:46:14;;;;;;;7.20;2.72;;;;;6.00;102533.00;;;;5072914;28;20195;-79
2021/12/21 02:48:42;;;;;;;7.22;2.80;;;;;6.00;102533.00;;;;5071328;28;20217;-80
2021/12/21 02:51:09;;;;;;;6.90;2.78;;;;;6.00;102526.00;;;;5071462;28;20211;-80
2021/12/21 02:53:38;;;;;;;6.88;2.90;;;;;6.00;102523.00;;;;5071163;28;20199;-79
2021/12/21 02:56:06;;;;;;;5.53;2.75;;;;;6.00;102522.00;;;;5072045;28;20203;-79
2021/12/21 02:58:34;;;;;;;6.80;2.80;;;;;6.00;102525.00;;;;5072749;28;20214;-79
2021/12/21 03:01:01;;;;;;;5.28;3.08;;;;;6.00;102533.00;;;;5072151;28;20199;-79
2021/12/21 03:03:29;;;;;;;5.72;2.75;;;;;5.90;102527.00;;;;5082910;28;20223;-79
2021/12/21 03:05:57;;;;;;;5.50;3.25;;;;;5.90;102524.00;;;;5071683;28;20222;-80
2021/12/21 03:08:36;;;;;;;10.00;3.72;;;;;5.90;102531.00;;;;5072452;28;20190;-79
2021/12/21 03:11:12;;;;;;;4.90;3.08;;;;;5.90;102527.00;;;;5092257;28;20197;-79
2021/12/21 03:16:21;;;;;;;6.20;3.45;;;;;5.90;102518.00;;;;5089789;28;20213;-79
2021/12/21 03:18:49;;;;;;;7.93;3.97;;;;;5.90;102524.00;;;;5076736;28;20227;-80
2021/12/21 03:21:16;;;;;;;5.50;3.25;;;;;5.90;102520.00;;;;5085254;28;20221;-79
2021/12/21 03:23:44;;;;;;;5.20;3.38;;;;;5.90;102526.00;;;;5084692;28;20198;-79
2021/12/21 03:26:12;;;;;;;7.43;3.50;;;;;5.90;102526.00;;;;5079039;28;20190;-79
2021/12/21 03:28:40;;;;;;;7.05;3.30;;;;;5.90;102522.00;;;;5091813;28;20190;-79
2021/12/21 03:31:07;;;;;;;6.13;3.35;;;;;5.80;102519.00;;;;5071612;28;20191;-79
2021/12/21 03:33:35;;;;;;;4.65;2.92;;;;;5.80;102523.00;;;;5070408;28;20199;-79
2021/12/21 03:36:02;;;;;;;5.47;2.78;;;;;5.80;102520.00;;;;5072468;28;20213;-79
2021/12/21 03:38:31;;;;;;;8.23;3.22;;;;;5.80;102526.00;;;;5071282;28;20225;-79
2021/12/21 03:41:04;;;;;;;4.90;2.85;;;;;5.80;102521.00;;;;5072091;28;20213;-79
2021/12/21 03:43:33;;;;;;;6.35;2.65;;;;;5.80;102524.00;;;;5070732;28;20194;-79
2021/12/21 03:46:07;;;;;;;5.25;3.00;;;;;5.80;102526.00;;;;5071959;28;20199;-79
2021/12/21 03:48:35;;;;;;;5.32;2.38;;;;;5.80;102520.00;;;;5070733;28;20270;-79
2021/12/21 03:51:03;;;;;;;5.13;2.60;;;;;5.80;102526.00;;;;5070035;28;20214;-79
2021/12/21 03:53:31;;;;;;;4.25;2.67;;;;;5.80;102523.00;;;;5090166;28;20199;-78
2021/12/21 03:56:11;;;;;;;5.50;2.90;;;;;5.80;102521.00;;;;5077145;28;20195;-78
2021/12/21 03:58:40;;;;;;;6.50;2.65;;;;;5.70;102525.00;;;;5070364;28;20245;-79
2021/12/21 04:01:08;;;;;;;6.57;2.92;;;;;5.80;102521.00;;;;5070285;28;20199;-79
2021/12/21 04:03:35;;;;;;;7.93;3.38;;;;;5.70;102522.00;;;;5069897;28;20190;-78
2021/12/21 04:06:02;;;;;;;4.90;2.75;;;;;5.70;102525.00;;;;5070243;28;20569;-78
2021/12/21 04:08:30;;;;;;;4.72;2.53;;;;;5.70;102520.00;;;;5070186;28;20202;-78
2021/12/21 04:10:57;;;;;;;5.35;2.80;;;;;5.70;102519.00;;;;5070911;28;20202;-78
2021/12/21 04:13:24;;;;;;;4.32;3.08;;;;;5.70;102526.00;;;;5080036;28;20605;-78
2021/12/21 04:15:54;;;;;;;5.15;3.17;;;;;5.70;102519.00;;;;5070441;28;20190;-78
2021/12/21 04:18:23;;;;;;;5.63;3.20;;;;;5.70;102516.00;;;;5075734;28;20219;-78
2021/12/21 04:20:51;;;;;;;7.45;3.35;;;;;5.70;102513.00;;;;5083453;28;20198;-78
2021/12/21 04:23:19;;;;;;;7.80;3.20;;;;;5.70;102517.00;;;;5069460;28;20203;-79
2021/12/21 04:25:46;;;;;;;8.15;3.63;;;;;5.70;102516.00;;;;5070907;28;20202;-79
2021/12/21 04:28:14;;;;;;;6.22;3.17;;;;;5.70;102515.00;;;;5070161;28;20202;-78
2021/12/21 04:30:41;;;;;;;5.03;3.15;;;;;5.70;102514.00;;;;5070515;28;20207;-78
2021/12/21 04:33:09;;;;;;;5.60;2.92;;;;;5.60;102509.00;;;;5070601;28;20191;-78
2021/12/21 04:35:37;;;;;;;6.65;3.22;;;;;5.70;102514.00;;;;5068756;28;20257;-78
2021/12/21 04:38:20;;;;;;;5.78;2.92;;;;;5.70;102507.00;;;;5069880;28;20202;-78
2021/12/21 04:40:50;;;;;;;6.18;3.13;;;;;5.60;102507.00;;;;5070430;28;20187;-78
2021/12/21 04:43:17;;;;;;;7.50;2.83;;;;;5.60;102510.00;;;;5068747;28;20922;-78
2021/12/21 04:45:45;;;;;;;6.88;2.45;;;;;5.60;102501.00;;;;5069049;28;20207;-79
2021/12/21 04:48:14;;;;;;;4.65;2.95;;;;;5.60;102499.00;;;;5072740;28;20665;-78
2021/12/21 04:50:42;;;;;;;5.80;2.80;;;;;5.60;102496.00;;;;5073291;28;20206;-78
2021/12/21 04:53:09;;;;;;;4.43;3.10;;;;;5.60;102499.00;;;;5073177;28;20206;-78
2021/12/21 04:55:37;;;;;;;6.18;3.40;;;;;5.60;102504.00;;;;5068842;28;20202;-78
2021/12/21 04:58:04;;;;;;;6.78;3.05;;;;;5.60;102502.00;;;;5070161;28;20210;-78
2021/12/21 05:00:32;;;;;;;4.97;3.40;;;;;5.60;102497.00;;;;5075487;28;20207;-78
2021/12/21 05:02:59;;;;;;;5.85;3.25;;;;;5.60;102490.00;;;;5082522;28;20195;-79
2021/12/21 05:05:28;;;;;;;8.93;3.85;;;;;5.60;102500.00;;;;5090020;28;20590;-78
2021/12/21 05:08:06;;;;;;;8.38;3.88;;;;;5.60;102486.00;;;;5088916;28;20186;-78
2021/12/21 05:10:37;;;;;;;5.47;3.22;;;;;5.60;102497.00;;;;5070229;28;20194;-79
2021/12/21 05:13:04;;;;;;;5.35;3.10;;;;;5.60;102496.00;;;;5069068;28;20340;-78
2021/12/21 05:15:32;;;;;;;4.97;3.17;;;;;5.60;102484.00;;;;5069842;28;20330;-78
2021/12/21 05:17:59;;;;;;;5.72;2.90;;;;;5.60;102497.00;;;;5074391;28;20664;-78
2021/12/21 05:20:28;;;;;;;6.22;3.40;;;;;5.50;102493.00;;;;5073599;28;20215;-78
2021/12/21 05:22:55;;;;;;;6.60;3.50;;;;;5.50;102492.00;;;;5069536;28;20580;-78
2021/12/21 05:25:22;;;;;;;9.52;3.42;;;;;5.50;102495.00;;;;5070182;28;20195;-78
2021/12/21 05:27:50;;;;;;;11.48;3.70;;;;;5.50;102487.00;;;;5069066;28;20203;-78
2021/12/21 05:30:17;;;;;;;6.28;3.22;;;;;5.50;102490.00;;;;5069896;28;20195;-78
2021/12/21 05:32:44;;;;;;;7.22;3.63;;;;;5.50;102492.00;;;;5073321;28;20203;-78
2021/12/21 05:35:12;;;;;;;5.10;2.88;;;;;5.50;102494.00;;;;5072488;28;20214;-78
2021/12/21 05:37:46;;;;;;;5.63;3.35;;;;;5.50;102498.00;;;;5069318;28;20191;-79
2021/12/21 05:40:38;;;;;;;5.35;3.42;;;;;5.40;102500.00;;;;5069531;28;20215;-78
2021/12/21 05:43:07;;;;;;;5.40;3.15;;;;;5.50;102500.00;;;;5072001;28;20183;-79
2021/12/21 05:45:34;;;;;;;6.80;3.20;;;;;5.50;102506.00;;;;5078424;28;20656;-78
2021/12/21 05:48:02;;;;;;;5.65;3.28;;;;;5.50;102505.00;;;;5085183;28;20194;-78
2021/12/21 05:50:29;;;;;;;6.47;3.28;;;;;5.50;102506.00;;;;5073655;28;20569;-78
2021/12/21 05:52:58;;;;;;;5.82;3.38;;;;;5.50;102508.00;;;;5069678;28;20199;-78
2021/12/21 05:55:26;;;;;;;8.55;3.38;;;;;5.50;102504.00;;;;5069202;28;20202;-78
2021/12/21 05:57:54;;;;;;;6.05;3.47;;;;;5.50;102505.00;;;;5069061;28;20272;-78
2021/12/21 06:00:25;;;;;;;10.18;3.97;;;;;5.50;102496.00;;;;5070823;28;20226;-78
2021/12/21 06:02:53;;;;;;;7.25;3.40;;;;;5.50;102497.00;;;;5077577;28;20683;-79
2021/12/21 06:05:21;;;;;;;8.25;4.22;;;;;5.50;102489.00;;;;5068707;28;20198;-78
2021/12/21 06:07:51;;;;;;;5.28;3.08;;;;;5.50;102506.00;;;;5071104;28;20216;-79
2021/12/21 06:10:26;;;;;;;5.95;3.22;;;;;5.50;102505.00;;;;5071739;28;20210;-79
2021/12/21 06:13:14;;;;;;;6.35;3.65;;;;;5.50;102497.00;;;;5089233;28;20304;-79
2021/12/21 06:15:51;;;;;;;6.65;3.60;;;;;5.50;102497.00;;;;5072497;28;20195;-79
2021/12/21 06:26:50;;;;;;;5.50;2.80;;;;;5.40;102495.00;;;;5029827;28;20266;-79
2021/12/21 06:29:18;;;;;;;5.65;3.45;;;;;5.40;102496.00;;;;5027138;28;20243;-80
2021/12/21 06:31:46;;;;;;;5.63;3.22;;;;;5.40;102492.00;;;;5053443;28;20202;-79
2021/12/21 06:34:13;;;;;;;5.47;3.03;;;;;5.40;102497.00;;;;5077594;28;20237;-77
2021/12/21 06:36:41;;;;;;;5.30;3.45;;;;;5.40;102490.00;;;;5075026;28;20766;-77
2021/12/21 06:39:10;;;;;;;5.22;3.42;;;;;5.40;102495.00;;;;5073512;28;20225;-78
2021/12/21 06:41:38;;;;;;;5.93;3.00;;;;;5.40;102495.00;;;;5075834;28;21465;-78
2021/12/21 06:44:09;;;;;;;5.75;3.15;;;;;5.40;102494.00;;;;5080191;28;20206;-77
2021/12/21 06:46:50;;;;;;;7.10;3.75;;;;;5.40;102500.00;;;;5075887;28;20210;-79
2021/12/21 06:52:02;;;;;;;5.18;3.50;;;;;5.40;102490.00;;;;5076578;28;20704;-77
2021/12/21 06:54:30;;;;;;;6.72;3.58;;;;;5.40;102502.00;;;;5075152;28;20198;-78
2021/12/21 06:56:58;;;;;;;8.55;3.83;;;;;5.40;102492.00;;;;5073197;28;20214;-77
2021/12/21 06:59:27;;;;;;;6.65;4.25;;;;;5.40;102497.00;;;;5075991;28;20682;-78
2021/12/21 07:01:55;;;;;;;7.82;4.30;;;;;5.40;102494.00;;;;5075699;28;20198;-78
2021/12/21 07:04:22;;;;;;;8.98;3.92;;;;;5.40;102491.00;;;;5075413;28;20203;-78
2021/12/21 07:06:52;;;;;;;8.00;3.90;;;;;5.30;102498.00;;;;5074080;28;20254;-79
2021/12/21 07:09:24;;;;;;;6.30;3.33;;;;;5.30;102496.00;;;;5073952;28;20202;-78
2021/12/21 07:12:07;;;;;;;6.53;3.60;;;;;5.30;102489.00;;;;5073745;28;20203;-78
2021/12/21 07:20:08;;;;;;;7.30;3.92;;;;;5.30;102513.00;;;;5076839;28;20589;-78
2021/12/21 07:22:35;;;;;;;7.65;4.15;;;;;5.40;102510.00;;;;5076318;28;20285;-78
2021/12/21 07:25:02;;;;;;;8.15;3.78;;;;;5.40;102509.00;;;;5077830;28;20195;-79
2021/12/21 07:27:30;;;;;;;5.63;3.53;;;;;5.40;102507.00;;;;5077914;28;20257;-79
2021/12/21 07:29:58;;;;;;;6.00;3.90;;;;;5.40;102507.00;;;;5079810;28;20249;-76
2021/12/21 07:32:26;;;;;;;7.05;4.30;;;;;5.50;102507.00;;;;5080088;28;20198;-79
2021/12/21 07:34:53;;;;;;;5.63;3.70;;;;;5.50;102503.00;;;;5080686;28;20213;-79
2021/12/21 07:37:20;;;;;;;7.18;4.22;;;;;5.50;102504.00;;;;5077538;28;20198;-77
2021/12/21 07:39:48;;;;;;;5.00;3.13;;;;;5.50;102503.00;;;;5075679;28;20223;-77
2021/12/21 07:42:15;;;;;;;7.63;3.92;;;;;5.50;102510.00;;;;5080036;28;20211;-77
2021/12/21 07:44:42;;;;;;;5.78;3.53;;;;;5.50;102503.00;;;;5081584;28;20198;-77
2021/12/21 07:47:11;;;;;;;7.78;4.03;;;;;5.60;102507.00;;;;5085257;28;20195;-78
2021/12/21 07:49:39;;;;;;;8.25;4.78;;;;;5.60;102506.00;;;;5075868;28;20206;-77
2021/12/21 07:52:08;;;;;;;6.20;3.85;;;;;5.60;102503.00;;;;5075868;28;20597;-77
2021/12/21 07:54:36;;;;;;;5.70;3.92;;;;;5.60;102508.00;;;;5087832;28;20210;-77
2021/12/21 07:57:06;;;;;;;7.32;3.90;;;;;5.60;102512.00;;;;5076492;28;20202;-78
2021/12/21 07:59:34;;;;;;;9.45;3.50;;;;;5.60;102508.00;;;;5089481;28;20226;-77
2021/12/21 08:02:01;;;;;;;6.32;3.33;;;;;5.60;102511.00;;;;5078320;28;20203;-78
2021/12/21 08:04:31;;;;;;;5.10;3.42;;;;;5.60;102506.00;;;;5087387;28;20205;-77
2021/12/21 08:07:05;;;;;;;6.72;3.83;;;;;5.70;102514.00;;;;5084403;28;20237;-77
2021/12/21 08:09:38;;;;;;;6.85;3.85;;;;;5.70;102525.00;;;;5082654;28;20672;-78
2021/12/21 08:12:15;;;;;;;9.98;4.00;;;;;5.70;102520.00;;;;5083998;28;20198;-79
2021/12/21 08:14:44;;;;;;;9.80;4.53;;;;;5.70;102527.00;;;;5089747;28;20202;-77
2021/12/21 08:17:11;;;;;;;7.28;4.93;;;;;5.70;102524.00;;;;5089624;28;20202;-76
2021/12/21 08:19:40;;;;;;;10.27;5.15;;;;;5.70;102537.00;;;;5089392;28;20233;-77
2021/12/21 08:22:07;;;;;;;8.35;4.93;;;;;5.70;102526.00;;;;5090356;28;20206;-77
2021/12/21 08:24:35;;;;;;;9.73;4.80;;;;;5.80;102542.00;;;;5074461;28;20674;-77
2021/12/21 08:27:04;;;;;;;9.80;4.72;;;;;5.70;102537.00;;;;5073847;28;20202;-77
2021/12/21 08:29:32;;;;;;;10.90;5.35;;;;;5.70;102538.00;;;;5089023;28;20284;-77
2021/12/21 08:31:59;;;;;;;12.50;6.47;;;;;5.70;102546.00;;;;5089514;28;20206;-80
2021/12/21 08:34:27;;;;;;;14.48;7.18;;;;;5.80;102549.00;;;;5089427;28;20198;-76
2021/12/21 08:36:55;;;;;;;13.55;6.55;;;;;5.70;102550.00;;;;5078120;28;20207;-77
2021/12/21 08:39:24;;;;;;;23.60;6.47;;;;;5.80;102550.00;;;;5079686;28;20253;-76
2021/12/21 08:41:56;;;;;;;21.00;7.00;;;;;5.80;102546.00;;;;5071853;28;20203;-76
2021/12/21 08:44:24;;;;;;;24.15;7.43;;;;;5.80;102552.00;;;;5069162;28;20609;-76
2021/12/21 08:46:52;;;;;;;23.08;7.30;;;;;5.80;102551.00;;;;5066634;28;20691;-76
2021/12/21 08:49:20;;;;;;;26.33;8.52;;;;;5.80;102555.00;;;;5070452;28;20203;-76
2021/12/21 08:51:47;;;;;;;21.67;7.32;;;;;5.80;102553.00;;;;5084547;28;20696;-77
2021/12/21 08:54:16;;;;;;;13.27;6.22;;;;;5.80;102552.00;;;;5081155;28;20214;-77
2021/12/21 08:56:44;;;;;;;12.35;6.53;;;;;5.80;102555.00;;;;5089415;28;20199;-78
2021/12/21 08:59:12;;;;;;;13.20;6.85;;;;;5.90;102550.00;;;;5069314;28;20195;-78
2021/12/21 09:01:40;;;;;;;14.80;8.27;;;;;5.90;102551.00;;;;5070187;28;20198;-78
2021/12/21 09:04:07;;;;;;;13.85;8.20;;;;;5.90;102547.00;;;;5075363;28;20198;-78
2021/12/21 09:06:35;;;;;;;11.82;6.72;;;;;5.90;102550.00;;;;5072578;28;20227;-77
2021/12/21 09:09:02;;;;;;;19.33;7.78;;;;;5.90;102545.00;;;;5078001;28;20209;-78
2021/12/21 09:11:31;;;;;;;15.05;6.68;;;;;6.00;102545.00;;;;5074838;28;20207;-78
2021/12/21 09:13:58;;;;;;;15.38;7.25;;;;;6.00;102547.00;;;;5081464;28;20209;-78
2021/12/21 09:16:25;;;;;;;13.48;6.65;;;;;6.00;102542.00;;;;5067857;28;20194;-77
2021/12/21 09:18:52;;;;;;;13.75;7.07;;;;;6.00;102542.00;;;;5077424;28;20197;-78
2021/12/21 09:21:20;;;;;;;19.45;7.18;;;;;6.10;102539.00;;;;5080876;28;20218;-79
2021/12/21 09:23:47;;;;;;;13.43;7.20;;;;;6.10;102544.00;;;;5081239;28;20202;-78
2021/12/21 09:26:14;;;;;;;11.50;6.80;;;;;6.10;102548.00;;;;5082562;28;20203;-78
2021/12/21 09:28:44;;;;;;;12.57;6.47;;;;;6.10;102532.00;;;;5071754;28;20200;-78
2021/12/21 09:31:11;;;;;;;11.15;6.20;;;;;6.20;102539.00;;;;5079320;28;20198;-78
2021/12/21 09:33:38;;;;;;;8.63;5.63;;;;;6.20;102539.00;;;;5075743;28;20186;-78
2021/12/21 09:36:07;;;;;;;9.55;5.65;;;;;6.30;102544.00;;;;5084795;28;20203;-77
2021/12/21 09:38:34;;;;;;;9.25;5.80;;;;;6.30;102548.00;;;;5081191;28;20203;-77
2021/12/21 09:41:02;;;;;;;10.68;5.88;;;;;6.30;102550.00;;;;5074354;28;20227;-77
2021/12/21 09:43:29;;;;;;;10.02;6.35;;;;;6.40;102548.00;;;;5069346;28;20660;-78
2021/12/21 09:45:58;;;;;;;7.45;5.03;;;;;6.40;102541.00;;;;5086619;28;20201;-78
2021/12/21 09:48:28;;;;;;;10.35;5.28;;;;;6.40;102536.00;;;;5073977;28;20249;-79
2021/12/21 09:50:56;;;;;;;8.55;5.75;;;;;6.50;102531.00;;;;5085732;28;20755;-78
2021/12/21 09:53:24;;;;;;;10.30;6.40;;;;;6.50;102529.00;;;;5075678;28;20202;-78
2021/12/21 09:55:51;;;;;;;10.05;5.55;;;;;6.60;102523.00;;;;5085902;28;20199;-78
2021/12/21 09:58:18;;;;;;;9.10;5.80;;;;;6.60;102525.00;;;;5088587;28;20244;-78
2021/12/21 10:00:47;;;;;;;10.82;5.68;;;;;6.70;102523.00;;;;5079683;28;20225;-78
2021/12/21 10:03:16;;;;;;;9.30;5.82;;;;;6.70;102527.00;;;;5074024;28;20235;-78
2021/12/21 10:05:45;;;;;;;8.02;4.85;;;;;6.80;102537.00;;;;5072912;28;20269;-78
2021/12/21 10:08:16;;;;;;;8.93;5.35;;;;;6.80;102532.00;;;;5078787;28;20422;-78
2021/12/21 10:10:46;;;;;;;7.43;4.65;;;;;6.80;102538.00;;;;5074827;28;20727;-78
2021/12/21 10:13:18;;;;;;;7.28;5.15;;;;;6.90;102541.00;;;;5077183;28;20194;-79
2021/12/21 10:15:47;;;;;;;11.43;5.85;;;;;7.00;102534.00;;;;5080229;28;20202;-78
2021/12/21 10:18:23;;;;;;;8.20;5.32;;;;;7.00;102535.00;;;;5083403;28;20198;-78
2021/12/21 10:20:51;;;;;;;8.25;5.75;;;;;7.10;102544.00;;;;5079059;28;20287;-78
2021/12/21 10:23:21;;;;;;;9.50;5.40;;;;;7.20;102557.00;;;;5080251;28;20668;-78
2021/12/21 10:25:50;;;;;;;9.25;5.57;;;;;7.20;102544.00;;;;5084099;28;20201;-81
2021/12/21 10:28:28;;;;;;;8.43;5.13;;;;;7.20;102547.00;;;;5070007;28;20190;-78
2021/12/21 10:30:56;;;;;;;8.20;5.40;;;;;7.40;102536.00;;;;5072112;28;20213;-78
2021/12/21 10:33:26;;;;;;;10.82;5.82;;;;;7.40;102537.00;;;;5086412;28;20233;-78
2021/12/21 10:35:55;;;;;;;9.63;5.70;;;;;7.50;102531.00;;;;5076698;28;20206;-79
2021/12/21 10:38:31;;;;;;;8.43;5.72;;;;;7.50;102529.00;;;;5077558;28;20195;-79
2021/12/21 10:41:10;;;;;;;13.95;6.47;;;;;7.60;102520.00;;;;5072878;28;20581;-78
2021/12/21 10:43:37;;;;;;;11.93;7.05;;;;;7.70;102507.00;;;;5076085;28;20742;-76
2021/12/21 10:46:05;;;;;;;11.57;7.07;;;;;7.80;102504.00;;;;5075491;28;20290;-78
2021/12/21 10:48:36;;;;;;;16.42;7.93;;;;;7.80;102498.00;;;;5076758;28;21085;-79
2021/12/21 10:51:07;;;;;;;11.02;7.28;;;;;7.90;102493.00;;;;5080233;28;20272;-79
2021/12/21 10:53:37;;;;;;;11.23;6.53;;;;;8.00;102491.00;;;;5075007;28;20564;-79
2021/12/21 10:56:07;;;;;;;14.65;8.07;;;;;8.00;102488.00;;;;5078726;28;20681;-76
2021/12/21 10:58:39;;;;;;;15.50;8.73;;;;;8.00;102482.00;;;;5072863;28;20195;-78
2021/12/21 11:01:09;;;;;;;14.57;8.20;;;;;8.10;102487.00;;;;5086993;28;20217;-77
2021/12/21 11:03:46;;;;;;;10.77;7.50;;;;;8.20;102487.00;;;;5077883;28;20286;-78
2021/12/21 11:06:16;;;;;;;17.60;8.30;;;;;8.30;102481.00;;;;5074563;28;20590;-78
2021/12/21 11:08:45;;;;;;;14.38;7.82;;;;;8.30;102477.00;;;;5079635;28;20202;-79
2021/12/21 11:11:26;;;;;;;15.27;8.50;;;;;8.40;102480.00;;;;5089257;28;20205;-78
2021/12/21 11:14:08;;;;;;;11.75;6.97;;;;;8.40;102478.00;;;;5081448;28;20198;-78
2021/12/21 11:16:41;;;;;;;12.52;7.60;;;;;8.50;102483.00;;;;5090568;28;20198;-78
2021/12/21 11:19:11;;;;;;;11.55;7.30;;;;;8.60;102476.00;;;;5089027;28;20260;-78
2021/12/21 11:21:39;;;;;;;12.50;7.35;;;;;8.70;102487.00;;;;5084693;28;20225;-78
2021/12/21 11:24:09;;;;;;;9.80;6.82;;;;;8.70;102488.00;;;;5086003;28;20260;-78
2021/12/21 11:26:38;;;;;;;12.30;7.05;;;;;8.70;102492.00;;;;5091228;28;20205;-78
2021/12/21 11:29:07;;;;;;;11.88;7.50;;;;;8.80;102486.00;;;;5070762;28;20206;-78
2021/12/21 11:31:38;;;;;;;11.98;7.43;;;;;8.80;102490.00;;;;5083662;28;20201;-79
2021/12/21 11:34:12;;;;;;;12.05;7.65;;;;;8.90;102488.00;;;;5091558;28;20202;-78
2021/12/21 11:39:31;;;;;;;12.90;7.65;;;;;9.00;102482.00;;;;5084631;28;20205;-78
2021/12/21 11:41:59;;;;;;;15.35;8.48;;;;;9.00;102478.00;;;;5090309;28;20321;-78
2021/12/21 11:44:37;;;;;;;13.63;8.00;;;;;9.10;102479.00;;;;5083765;28;20210;-78
2021/12/21 11:47:09;;;;;;;15.27;9.38;;;;;9.10;102471.00;;;;5072924;28;20213;-78
2021/12/21 11:49:44;;;;;;;17.83;10.40;;;;;9.20;102469.00;;;;5077953;28;20199;-78
2021/12/21 11:52:14;;;;;;;17.52;9.43;;;;;9.30;102455.00;;;;5073384;28;20222;-78
2021/12/21 11:54:48;;;;;;;14.35;9.88;;;;;9.30;102467.00;;;;5077759;28;20228;-78
2021/12/21 11:57:16;;;;;;;20.95;11.75;;;;;9.40;102466.00;;;;5084744;28;20195;-79
2021/12/21 11:59:44;;;;;;;15.93;9.18;;;;;9.50;102450.00;;;;5084320;28;20268;-80
2021/12/21 12:02:11;;;;;;;16.55;9.35;;;;;9.50;102454.00;;;;5086548;28;20300;-78
2021/12/21 12:04:40;;;;;;;15.07;10.63;;;;;9.60;102454.00;;;;5073653;28;20195;-78
2021/12/21 12:07:17;;;;;;;16.98;9.38;;;;;9.60;102453.00;;;;5080254;28;20323;-79
2021/12/21 12:09:45;;;;;;;16.20;10.23;;;;;9.70;102447.00;;;;5087245;28;20201;-79
2021/12/21 12:12:16;;;;;;;16.67;9.50;;;;;9.80;102446.00;;;;5076429;28;20861;-78
2021/12/21 12:14:44;;;;;;;12.88;8.38;;;;;9.90;102441.00;;;;5067439;28;20274;-80
2021/12/21 12:17:15;;;;;;;14.80;9.07;;;;;9.90;102447.00;;;;5082010;28;20216;-79
2021/12/21 12:19:51;;;;;;;16.08;8.07;;;;;10.00;102442.00;;;;5072087;28;20195;-80
2021/12/21 12:22:18;;;;;;;12.40;7.97;;;;;10.10;102433.00;;;;5080329;28;20229;-80
2021/12/21 12:24:47;;;;;;;11.65;7.65;;;;;10.10;102428.00;;;;5089970;28;20190;-80
2021/12/21 12:27:19;;;;;;;13.73;7.63;;;;;10.20;102427.00;;;;5087921;28;20243;-79
2021/12/21 12:29:49;;;;;;;14.07;7.95;;;;;10.20;102417.00;;;;5079077;28;20285;-80
2021/12/21 12:32:18;;;;;;;14.45;7.20;;;;;10.30;102415.00;;;;5090053;28;20209;-81
2021/12/21 12:34:46;;;;;;;16.38;6.95;;;;;10.30;102413.00;;;;5089507;28;20202;-80
2021/12/21 12:37:18;;;;;;;11.20;6.15;;;;;10.40;102414.00;;;;5089910;28;20217;-80
2021/12/21 12:39:47;;;;;;;9.15;6.35;;;;;10.40;102405.00;;;;5073710;28;20202;-80
2021/12/21 12:42:19;;;;;;;10.55;6.63;;;;;10.40;102411.00;;;;5068712;28;20223;-80
2021/12/21 12:44:49;;;;;;;10.52;5.07;;;;;10.50;102413.00;;;;5068731;28;20211;-80
2021/12/21 12:47:17;;;;;;;11.85;6.05;;;;;10.50;102413.00;;;;5069731;28;20234;-79
2021/12/21 12:49:53;;;;;;;8.65;4.88;;;;;10.50;102403.00;;;;5068532;28;20825;-79
2021/12/21 12:52:24;;;;;;;8.07;4.93;;;;;10.70;102411.00;;;;5072651;28;20300;-78
2021/12/21 12:54:55;;;;;;;11.55;6.22;;;;;10.80;102408.00;;;;5090142;28;20839;-78
2021/12/21 12:57:28;;;;;;;9.52;6.07;;;;;10.90;102413.00;;;;5069101;28;20203;-78
2021/12/21 12:59:57;;;;;;;8.07;5.85;;;;;11.10;102412.00;;;;5069265;28;20194;-79
2021/12/21 13:02:26;;;;;;;13.18;7.28;;;;;11.40;102416.00;;;;5069728;28;20234;-78
2021/12/21 13:04:57;;;;;;;13.23;7.13;;;;;11.70;102416.00;;;;5089409;28;20205;-78
2021/12/21 13:07:26;;;;;;;12.52;6.53;;;;;12.00;102409.00;;;;5089598;28;20226;-78
2021/12/21 13:10:04;;;;;;;9.05;6.07;;;;;12.30;102409.00;;;;5089566;28;20187;-79